الصفحة الرئيسية
METAR-TAF:

METAR-TAF

مطار :

Puvirnituq, كيبك, كندا

دائرة عرض: 60-03N, خط طول: 077-17W, ارتفاع: 23 متر

مراقبة الطقس الحالي

تاريخ ووقت الإصدار 37 دقيقة قبل الساعة 16:00UTC
ريح 20 عقدة من الغرب تتزايد حتى 25 عقدة
درجة الحرارة 6°درجة مئوية
الرطوبة 70%
ضغط 1010 hPa
الرؤية: 14.5 كم
سماء صافية

METAR: CYPX 151600Z AUTO 28020G25KT 9SM CLR 06/01 A2982 RMK SLP100

زمن: 12:37 (16:37 UTC)

توقعات

تاريخ ووقت الإصدار 4ساعات و 45 دقيقة قبل الساعة 11:52UTC
التوقعات صالحة من15 الساعة 12 UTC إلى 15 الساعة 24 UTC
ريح 18 عقدة من الغرب/الشمال الغربي تتزايد حتى 28 عقدة
الرؤية: 10 كم
غيوم قليلة على ارتفاع 1200 قدم
مؤقت
من 15 الساعة 12 UTC إلى 15 الساعة 14 UTC
غيوم مفككة على ارتفاع 1200 قدم
من 15 الساعة 2300 UTC
ريح 12 عقدة من الغرب
الرؤية: 10 كم
غيوم مفككة على ارتفاع 10000 قدم

TAF: CYPX 151152Z 1512/1524 30018G28KT P6SM FEW012 TEMPO 1512/1514 BKN012 FM152300 28012KT P6SM BKN100 RMK FCST BASED ON AUTO OBS. NXT FCST BY 151800Z

أرصاد الطقس والتوقعات من أكثر من 4000 مطار (تقارير الطقس للمطار METAR والتنبؤ بالطقس بالمطارTAF).

المحطات المتاحة هي النقط الصفراء والحمراء على الخريطة.

حرك المؤشر فوق النقطة لمعرفة اسم المحطة.

ثم انقر لمعرفة أرصاد وتوقعات الطقس.

لتغيير الخارطة: اضغط على الأزرار الخضراء مع رمز الصليب الأسود للتكبير. على الزر الأخضر مع شرطة للتصغير، أو على الأسهم الخضراء للخرائط المجاورة.


METAR-TAF: